Time;durP1;ratioP1;P1;durP2;ratioP2;P2;SDS_P1;SDS_P2;PMS_P1;PMS_P2;Temp;Humidity;BMP_temperature;BMP_pressure;BME280_temperature;BME280_humidity;BME280_pressure;Samples;Min_cycle;Max_cycle;Signal;HPM_P1;HPM_P2
2022/04/08 00:00:58;;;;;;;14.05;7.00;;;;;;;12.20;nan;-24157.78;4937349;29;20285;-71
2022/04/08 00:03:27;;;;;;;16.75;6.68;;;;;;;12.32;nan;-24161.03;4937439;29;20638;-71
2022/04/08 00:05:54;;;;;;;10.07;6.03;;;;;;;11.96;nan;-24151.03;4937045;29;20623;-72
2022/04/08 00:08:20;;;;;;;12.48;5.97;;;;;;;12.37;nan;-24162.44;4937092;29;20238;-72
2022/04/08 00:10:45;;;;;;;14.10;5.97;;;;;;;12.43;nan;-24164.13;4937133;29;20213;-72
2022/04/08 00:13:11;;;;;;;8.63;5.20;;;;;;;12.20;nan;-24157.66;4937210;29;20175;-72
2022/04/08 00:15:38;;;;;;;11.63;5.40;;;;;;;12.41;nan;-24163.56;4937130;29;20587;-71
2022/04/08 00:18:04;;;;;;;12.75;6.60;;;;;;;11.90;nan;-24149.34;4951564;29;20178;-72
2022/04/08 00:20:30;;;;;;;10.57;6.20;;;;;;;12.25;nan;-24159.06;4937182;29;20190;-72
2022/04/08 00:22:55;;;;;;;17.05;5.63;;;;;;;12.16;nan;-24156.66;4936906;29;20182;-73
2022/04/08 00:25:21;;;;;;;10.13;5.22;;;;;;;11.91;nan;-24149.63;4936886;29;20174;-73
2022/04/08 00:27:46;;;;;;;8.52;5.20;;;;;;;11.67;nan;-24143.00;4936627;29;20245;-72
2022/04/08 00:30:12;;;;;;;8.98;5.28;;;;;;;11.98;nan;-24151.59;4936528;29;20591;-72
2022/04/08 00:32:37;;;;;;;11.40;5.22;;;;;;;11.80;nan;-24146.66;4936715;29;20210;-72
2022/04/08 00:35:02;;;;;;;8.70;5.03;;;;;;;11.85;nan;-24148.06;4936845;29;20177;-71
2022/04/08 00:37:28;;;;;;;7.65;5.00;;;;;;;11.68;nan;-24143.13;4936680;29;20174;-72
2022/04/08 00:39:54;;;;;;;8.98;5.28;;;;;;;11.51;nan;-24138.50;4936861;29;20229;-70
2022/04/08 00:42:19;;;;;;;11.40;6.40;;;;;;;11.33;nan;-24133.56;4936771;29;20670;-72
2022/04/08 00:44:45;;;;;;;12.00;6.82;;;;;;;11.27;nan;-24131.88;4936715;29;20171;-71
2022/04/08 00:47:11;;;;;;;10.88;6.13;;;;;;;11.73;nan;-24144.69;4936614;29;20666;-70
2022/04/08 00:49:37;;;;;;;10.93;6.65;;;;;;;11.30;nan;-24132.72;4936585;29;20686;-71
2022/04/08 00:52:04;;;;;;;17.40;6.38;;;;;;;11.58;nan;-24140.47;4936903;29;20225;-71
2022/04/08 00:54:30;;;;;;;14.23;6.28;;;;;;;11.18;nan;-24129.19;4950770;29;20253;-70
2022/04/08 00:56:57;;;;;;;11.80;6.40;;;;;;;11.14;nan;-24128.06;4949587;29;20186;-70
2022/04/08 00:59:25;;;;;;;11.00;6.17;;;;;;;11.20;nan;-24129.75;4944280;29;20174;-71
2022/04/08 01:01:51;;;;;;;10.90;6.22;;;;;;;11.06;nan;-24126.09;4919109;29;20717;-71
2022/04/08 01:04:17;;;;;;;10.77;5.97;;;;;;;11.25;nan;-24131.16;4936400;29;20214;-71
2022/04/08 01:06:44;;;;;;;7.17;4.90;;;;;;;11.39;nan;-24135.09;4936926;29;20582;-72
2022/04/08 01:09:10;;;;;;;8.48;5.22;;;;;;;11.33;nan;-24133.56;4935887;29;20300;-72
2022/04/08 01:11:37;;;;;;;8.15;5.03;;;;;;;11.58;nan;-24140.31;4936110;29;20202;-70
2022/04/08 01:14:13;;;;;;;6.38;4.80;;;;;;;11.69;nan;-24143.41;4936239;29;20197;-71
2022/04/08 01:16:40;;;;;;;7.90;4.97;;;;;;;11.37;nan;-24134.53;4936526;29;20737;-70
2022/04/08 01:19:06;;;;;;;6.38;4.57;;;;;;;11.34;nan;-24133.84;4936394;29;20214;-70
2022/04/08 01:21:32;;;;;;;7.85;4.82;;;;;;;11.99;nan;-24151.88;4935332;29;20175;-70
2022/04/08 01:23:58;;;;;;;5.78;3.75;;;;;;;11.81;nan;-24146.81;4935862;29;20186;-71
2022/04/08 01:26:24;;;;;;;5.65;3.80;;;;;;;11.67;nan;-24142.84;4935717;29;20171;-70
2022/04/08 01:28:51;;;;;;;5.53;3.33;;;;;;;11.89;nan;-24149.06;4935741;29;20273;-72
2022/04/08 01:31:16;;;;;;;6.28;3.45;;;;;;;12.02;nan;-24152.56;4935632;29;20710;-70
2022/04/08 01:33:42;;;;;;;5.80;3.20;;;;;;;11.74;nan;-24144.84;4935900;29;20210;-70
2022/04/08 01:36:07;;;;;;;6.70;3.08;;;;;;;12.14;nan;-24155.97;4935739;29;20220;-71
2022/04/08 01:38:33;;;;;;;5.05;3.45;;;;;;;11.89;nan;-24149.06;4935422;29;20178;-71
2022/04/08 01:40:59;;;;;;;5.28;3.20;;;;;;;11.92;nan;-24149.91;4935584;29;20209;-71
2022/04/08 01:43:24;;;;;;;4.72;2.83;;;;;;;12.20;nan;-24157.66;4935392;29;20242;-71
2022/04/08 01:45:49;;;;;;;4.78;2.80;;;;;;;12.21;nan;-24158.06;4935444;29;20269;-71
2022/04/08 01:48:17;;;;;;;4.55;3.13;;;;;;;12.21;nan;-24158.06;4935186;29;20171;-70
2022/04/08 01:50:45;;;;;;;5.30;2.85;;;;;;;12.16;nan;-24156.53;4930366;29;20658;-70
2022/04/08 01:53:17;;;;;;;6.82;3.17;;;;;;;12.08;nan;-24154.25;4935233;29;20198;-72
2022/04/08 01:55:46;;;;;;;6.32;3.42;;;;;;;12.03;nan;-24153.00;4935561;29;20665;-71
2022/04/08 01:58:15;;;;;;;6.80;3.55;;;;;;;11.95;nan;-24150.75;4934905;29;20179;-70
2022/04/08 02:00:44;;;;;;;5.20;3.50;;;;;;;11.95;nan;-24150.88;4933885;29;20626;-70
2022/04/08 02:03:17;;;;;;;7.60;3.20;;;;;;;11.99;nan;-24151.72;4935382;29;20182;-71
2022/04/08 02:05:45;;;;;;;5.15;3.05;;;;;;;12.00;nan;-24152.16;4935602;29;20178;-72
2022/04/08 02:08:11;;;;;;;4.90;3.30;;;;;;;12.09;nan;-24154.53;4934888;29;20318;-70
2022/04/08 02:10:36;;;;;;;5.68;3.58;;;;;;;11.66;nan;-24142.72;4934603;29;20285;-71
2022/04/08 02:13:01;;;;;;;7.82;3.20;;;;;;;11.53;nan;-24139.19;4935280;29;20171;-71
2022/04/08 02:15:31;;;;;;;4.22;3.15;;;;;;;11.46;nan;-24137.09;4935124;29;20175;-71
2022/04/08 02:17:56;;;;;;;4.05;2.95;;;;;;;11.83;nan;-24147.38;4934881;29;20313;-70
2022/04/08 02:20:23;;;;;;;4.18;3.20;;;;;;;11.93;nan;-24150.19;4917980;29;20202;-71
2022/04/08 02:22:49;;;;;;;4.80;3.20;;;;;;;11.76;nan;-24145.53;4934800;29;20179;-72
2022/04/08 02:25:14;;;;;;;6.15;3.42;;;;;;;11.72;nan;-24144.41;4934569;29;20315;-71
2022/04/08 02:27:40;;;;;;;5.17;3.10;;;;;;;11.79;nan;-24146.38;4935433;29;20163;-71
2022/04/08 02:30:06;;;;;;;4.03;3.30;;;;;;;11.91;nan;-24149.75;4934753;29;20245;-72
2022/04/08 02:32:31;;;;;;;5.93;3.10;;;;;;;11.70;nan;-24143.84;4935117;29;20617;-70
2022/04/08 02:34:57;;;;;;;3.92;3.10;;;;;;;11.47;nan;-24137.34;4934807;29;20687;-71
2022/04/08 02:37:22;;;;;;;4.53;3.57;;;;;;;10.53;nan;-24111.28;4934559;29;20175;-70
2022/04/08 02:39:48;;;;;;;4.55;3.20;;;;;;;11.85;nan;-24148.06;4917497;29;20186;-71
2022/04/08 02:42:13;;;;;;;5.10;3.72;;;;;;;11.78;nan;-24145.97;4935136;29;20253;-72
2022/04/08 02:44:38;;;;;;;3.67;3.30;;;;;;;11.28;nan;-24132.16;4934873;29;20647;-71
2022/04/08 02:47:04;;;;;;;5.67;3.30;;;;;;;11.47;nan;-24137.50;4934755;29;20559;-70
2022/04/08 02:49:29;;;;;;;5.13;3.50;;;;;;;11.43;nan;-24136.38;4933025;29;20183;-72
2022/04/08 02:51:55;;;;;;;4.00;3.50;;;;;;;11.51;nan;-24138.50;4934348;29;20232;-71
2022/04/08 02:54:20;;;;;;;5.53;3.30;;;;;;;11.29;nan;-24132.44;4934396;29;20229;-70
2022/04/08 02:56:46;;;;;;;6.27;3.40;;;;;;;11.04;nan;-24125.38;4932534;29;20189;-70
2022/04/08 02:59:12;;;;;;;4.37;3.17;;;;;;;11.35;nan;-24134.13;4934710;29;20171;-71
2022/04/08 03:01:38;;;;;;;4.03;3.40;;;;;;;11.24;nan;-24130.88;4934546;29;20353;-72
2022/04/08 03:04:06;;;;;;;6.47;3.40;;;;;;;11.58;nan;-24140.31;4934762;29;20174;-72
2022/04/08 03:06:32;;;;;;;5.33;3.10;;;;;;;11.51;nan;-24138.63;4934308;29;20270;-70
2022/04/08 03:08:57;;;;;;;4.97;3.47;;;;;;;11.42;nan;-24136.09;4934272;29;20183;-71
2022/04/08 03:11:23;;;;;;;6.43;3.50;;;;;;;11.32;nan;-24133.28;4934360;29;20589;-71
2022/04/08 03:13:48;;;;;;;6.17;3.83;;;;;;;11.47;nan;-24137.50;4934113;29;20179;-70
2022/04/08 03:16:14;;;;;;;8.67;3.70;;;;;;;11.59;nan;-24140.59;4934345;29;20178;-72
2022/04/08 03:18:43;;;;;;;7.03;3.43;;;;;;;11.25;nan;-24131.16;4934283;29;20183;-70
2022/04/08 03:21:08;;;;;;;7.63;3.73;;;;;;;11.12;nan;-24127.63;4942448;29;20197;-72
2022/04/08 03:23:34;;;;;;;4.17;3.47;;;;;;;11.36;nan;-24134.41;4947250;29;20202;-72
2022/04/08 03:25:59;;;;;;;5.70;3.37;;;;;;;11.06;nan;-24125.94;4946830;29;20182;-71
2022/04/08 03:28:25;;;;;;;4.23;3.40;;;;;;;10.89;nan;-24121.28;4946489;29;20697;-72
2022/04/08 03:30:50;;;;;;;9.07;4.00;;;;;;;11.16;nan;-24128.63;4947440;29;20292;-71
2022/04/08 03:33:16;;;;;;;5.43;3.53;;;;;;;11.17;nan;-24129.03;4947206;29;20686;-71
2022/04/08 03:35:41;;;;;;;6.10;3.40;;;;;;;10.96;nan;-24123.13;4945578;29;20193;-72
2022/04/08 03:38:07;;;;;;;4.63;3.10;;;;;;;11.25;nan;-24131.31;4946229;29;20190;-72
2022/04/08 03:40:34;;;;;;;5.23;3.30;;;;;;;11.13;nan;-24127.91;4948184;29;20193;-71
2022/04/08 03:42:59;;;;;;;5.77;3.27;;;;;;;11.40;nan;-24135.53;4946831;28;20189;-72
2022/04/08 03:45:25;;;;;;;6.53;3.83;;;;;;;11.36;nan;-24134.41;4950076;29;20190;-72
2022/04/08 03:47:50;;;;;;;3.60;3.20;;;;;;;11.33;nan;-24133.56;4950659;29;20186;-71
2022/04/08 03:50:17;;;;;;;7.30;3.23;;;;;;;11.07;nan;-24126.22;4950552;29;20233;-72
2022/04/08 03:52:43;;;;;;;8.50;3.30;;;;;;;11.45;nan;-24136.81;4950664;28;20185;-72
2022/04/08 03:55:10;;;;;;;5.90;3.43;;;;;;;11.04;nan;-24125.38;4950115;29;20202;-71
2022/04/08 03:57:36;;;;;;;4.13;3.20;;;;;;;11.05;nan;-24125.66;4949532;29;20186;-70
2022/04/08 04:00:03;;;;;;;5.47;3.30;;;;;;;11.24;nan;-24131.03;4949311;29;20213;-70
2022/04/08 04:02:28;;;;;;;4.67;3.40;;;;;;;11.32;nan;-24133.13;4950499;28;20701;-70
2022/04/08 04:04:59;;;;;;;4.73;3.57;;;;;;;10.92;nan;-24122.00;4950485;29;20298;-71
2022/04/08 04:07:26;;;;;;;7.50;3.30;;;;;;;11.39;nan;-24135.25;4949557;28;20193;-71
2022/04/08 04:09:52;;;;;;;6.23;3.70;;;;;;;11.38;nan;-24134.97;4949350;29;20664;-73
2022/04/08 04:12:17;;;;;;;6.90;3.72;;;;;;;11.63;nan;-24141.72;4949842;28;20205;-72
2022/04/08 04:14:43;;;;;;;6.00;3.80;;;;;;;11.68;nan;-24143.13;4948367;29;20197;-71
2022/04/08 04:17:09;;;;;;;6.40;3.53;;;;;;;11.77;nan;-24145.69;4957811;28;20197;-71
2022/04/08 04:19:34;;;;;;;5.38;3.70;;;;;;;11.81;nan;-24146.94;4950536;29;20234;-71
2022/04/08 04:22:00;;;;;;;6.85;4.05;;;;;;;11.56;nan;-24139.91;4949354;28;20233;-73
2022/04/08 04:24:25;;;;;;;10.68;3.55;;;;;;;12.35;nan;-24162.00;4950420;29;20182;-71
2022/04/08 04:26:51;;;;;;;7.03;3.15;;;;;;;12.55;nan;-24167.50;4950385;29;20225;-72
2022/04/08 04:29:16;;;;;;;4.80;2.65;;;;;;;12.76;nan;-24173.41;4950108;29;20272;-72
2022/04/08 04:31:42;;;;;;;3.50;2.90;;;;;;;12.77;nan;-24173.69;4949711;28;20313;-73
2022/04/08 04:34:07;;;;;;;3.92;3.45;;;;;;;12.66;nan;-24170.44;4949827;29;20181;-72
2022/04/08 04:36:33;;;;;;;6.50;3.08;;;;;;;11.99;nan;-24151.88;4949838;29;20217;-71
2022/04/08 04:38:58;;;;;;;8.73;3.65;;;;;;;11.88;nan;-24148.78;4951074;29;20186;-73
2022/04/08 04:41:24;;;;;;;4.28;3.50;;;;;;;11.92;nan;-24149.91;4951156;29;20558;-73
2022/04/08 04:43:49;;;;;;;5.43;3.33;;;;;;;11.96;nan;-24151.03;4954455;29;20237;-74
2022/04/08 04:46:14;;;;;;;6.57;3.22;;;;;;;11.81;nan;-24146.94;4947969;29;20190;-72
2022/04/08 04:48:40;;;;;;;5.43;3.65;;;;;;;11.50;nan;-24138.34;4955642;29;20182;-72
2022/04/08 04:51:05;;;;;;;5.35;3.20;;;;;;;11.42;nan;-24136.09;4954965;29;20676;-72
2022/04/08 04:53:31;;;;;;;5.25;3.25;;;;;;;11.91;nan;-24149.63;4938654;29;20182;-71
2022/04/08 04:55:56;;;;;;;6.43;3.80;;;;;;;11.66;nan;-24142.72;4954613;28;20674;-74
2022/04/08 04:58:22;;;;;;;4.43;3.40;;;;;;;11.81;nan;-24146.81;4955433;28;20237;-70
2022/04/08 05:00:47;;;;;;;5.68;3.67;;;;;;;11.98;nan;-24151.59;4955465;28;20719;-73
2022/04/08 05:03:13;;;;;;;5.50;3.50;;;;;;;12.08;nan;-24154.41;4954081;29;20189;-74
2022/04/08 05:05:39;;;;;;;4.82;3.10;;;;;;;11.99;nan;-24151.88;4955196;28;20174;-74
2022/04/08 05:08:06;;;;;;;5.25;3.30;;;;;;;12.04;nan;-24153.13;4955305;28;20166;-70
2022/04/08 05:10:32;;;;;;;7.28;3.05;;;;;;;12.02;nan;-24152.72;4955358;28;20296;-71
2022/04/08 05:12:59;;;;;;;6.63;3.50;;;;;;;11.94;nan;-24150.59;4954311;29;20265;-71
2022/04/08 05:15:26;;;;;;;5.18;3.22;;;;;;;12.33;nan;-24161.44;4954957;28;20178;-71
2022/04/08 05:17:52;;;;;;;7.40;3.45;;;;;;;12.10;nan;-24154.97;4954986;28;20179;-71
2022/04/08 05:20:18;;;;;;;6.22;3.00;;;;;;;12.66;nan;-24170.44;4953277;29;20728;-71
2022/04/08 05:22:43;;;;;;;4.53;2.80;;;;;;;12.98;nan;-24179.44;4954910;29;20204;-71
2022/04/08 05:25:10;;;;;;;9.50;3.30;;;;;;;12.88;nan;-24176.50;4953808;28;20186;-71
2022/04/08 05:27:37;;;;;;;5.20;3.25;;;;;;;13.19;nan;-24185.22;4954028;29;20178;-71
2022/04/08 05:30:06;;;;;;;5.60;2.90;;;;;;;13.23;nan;-24186.34;4944971;29;20705;-71
2022/04/08 05:32:31;;;;;;;6.32;3.00;;;;;;;13.43;nan;-24191.81;4954338;28;20190;-71
2022/04/08 05:34:57;;;;;;;3.80;2.88;;;;;;;13.65;nan;-24198.13;4954573;29;20533;-71
2022/04/08 05:37:22;;;;;;;4.70;3.40;;;;;;;13.80;nan;-24202.19;4954781;29;20700;-71
2022/04/08 05:39:48;;;;;;;8.20;3.35;;;;;;;13.91;nan;-24205.28;4954390;28;20273;-71
2022/04/08 05:42:13;;;;;;;5.45;3.38;;;;;;;13.60;nan;-24196.59;4954436;28;20178;-71
2022/04/08 05:44:38;;;;;;;5.68;3.13;;;;;;;14.19;nan;-24213.00;4954530;29;20178;-71
2022/04/08 05:47:04;;;;;;;7.05;3.83;;;;;;;13.90;nan;-24205.00;4954728;28;20202;-71
2022/04/08 05:49:32;;;;;;;4.95;3.30;;;;;;;14.47;nan;-24220.88;4954129;29;20185;-71
2022/04/08 05:51:57;;;;;;;4.53;2.90;;;;;;;14.67;nan;-24226.34;4973326;28;20255;-71
2022/04/08 05:54:22;;;;;;;6.40;2.85;;;;;;;14.49;nan;-24221.28;4985498;28;20173;-72
2022/04/08 05:56:48;;;;;;;5.75;3.40;;;;;;;14.63;nan;-24225.22;4989307;28;20172;-71
2022/04/08 05:59:13;;;;;;;5.13;3.05;;;;;;;14.92;nan;-24233.22;4987632;28;20196;-71
2022/04/08 06:01:38;;;;;;;4.25;2.60;;;;;;;15.02;nan;-24236.00;4974043;28;20206;-72
2022/04/08 06:04:04;;;;;;;4.33;2.90;;;;;;;15.29;nan;-24243.44;4971756;28;20525;-68
2022/04/08 06:06:30;;;;;;;5.57;2.75;;;;;;;15.38;nan;-24245.94;4973169;28;20221;-65
2022/04/08 06:08:55;;;;;;;4.28;2.70;;;;;;;16.19;nan;-24268.34;4973591;28;20209;-65
2022/04/08 06:11:20;;;;;;;3.97;2.50;;;;;;;16.25;nan;-24270.16;4963198;28;20214;-66
2022/04/08 06:13:46;;;;;;;5.93;2.60;;;;;;;16.28;nan;-24270.84;4965809;28;20660;-65
2022/04/08 06:16:11;;;;;;;3.90;2.85;;;;;;;16.40;nan;-24274.06;4959138;28;20217;-66
2022/04/08 06:18:36;;;;;;;3.13;2.42;;;;;;;16.03;nan;-24263.88;4953839;29;20178;-67
2022/04/08 06:21:04;;;;;;;5.57;2.50;;;;;;;16.46;nan;-24275.88;4972165;28;20181;-66
2022/04/08 06:23:29;;;;;;;5.07;2.60;;;;;;;16.32;nan;-24271.97;4973372;28;20176;-67
2022/04/08 06:25:54;;;;;;;3.45;2.50;;;;;;;16.54;nan;-24278.13;4973347;28;20557;-67
2022/04/08 06:28:20;;;;;;;2.50;2.30;;;;;;;16.65;nan;-24281.22;4973134;28;20813;-68
2022/04/08 06:30:45;;;;;;;3.78;2.33;;;;;;;16.60;nan;-24279.66;4972838;28;20197;-66
2022/04/08 06:33:11;;;;;;;2.85;2.20;;;;;;;16.71;nan;-24282.88;4972618;28;20170;-68
2022/04/08 06:35:37;;;;;;;3.70;2.83;;;;;;;16.77;nan;-24284.56;4972680;28;20252;-66
2022/04/08 06:38:07;;;;;;;4.07;2.58;;;;;;;16.68;nan;-24281.91;4973348;28;20193;-68
2022/04/08 06:40:38;;;;;;;3.95;2.58;;;;;;;16.56;nan;-24278.53;4973305;28;20173;-67
2022/04/08 06:43:05;;;;;;;4.57;2.75;;;;;;;16.76;nan;-24284.13;4973203;28;20169;-66
2022/04/08 06:45:31;;;;;;;3.53;2.53;;;;;;;17.00;nan;-24290.72;4972837;28;20243;-69
2022/04/08 06:47:57;;;;;;;3.70;2.58;;;;;;;17.18;nan;-24295.88;4972924;28;20629;-67
2022/04/08 06:50:23;;;;;;;3.65;2.70;;;;;;;17.24;nan;-24297.41;4962898;28;20233;-66
2022/04/08 06:52:48;;;;;;;3.90;2.58;;;;;;;16.91;nan;-24288.34;4953683;29;20189;-68
2022/04/08 06:55:14;;;;;;;6.78;2.60;;;;;;;17.48;nan;-24303.97;4953487;28;20189;-64
2022/04/08 06:57:41;;;;;;;3.63;2.80;;;;;;;17.43;nan;-24302.72;4953555;29;20654;-67
2022/04/08 07:00:10;;;;;;;6.38;2.35;;;;;;;17.45;nan;-24303.13;4955396;28;20196;-67
2022/04/08 07:02:35;;;;;;;3.20;2.42;;;;;;;17.21;nan;-24296.72;4956118;28;20221;-68
2022/04/08 07:05:02;;;;;;;3.97;2.38;;;;;;;17.19;nan;-24296.16;4953888;28;20186;-66
2022/04/08 07:07:38;;;;;;;3.72;2.47;;;;;;;17.19;nan;-24296.00;4953309;29;20178;-69
2022/04/08 07:10:06;;;;;;;7.68;2.80;;;;;;;17.57;nan;-24306.63;4953479;29;20233;-68
2022/04/08 07:12:32;;;;;;;4.30;2.28;;;;;;;17.33;nan;-24299.78;4953021;28;20260;-66
2022/04/08 07:14:57;;;;;;;7.18;2.50;;;;;;;17.91;nan;-24315.97;4953071;28;20214;-66
2022/04/08 07:17:26;;;;;;;4.20;2.42;;;;;;;18.13;nan;-24321.97;4953420;28;20173;-67
2022/04/08 07:19:52;;;;;;;3.03;2.38;;;;;;;18.07;nan;-24320.44;4956057;28;20186;-65
2022/04/08 07:22:17;;;;;;;6.13;2.58;;;;;;;18.13;nan;-24321.97;4956715;29;20181;-66
2022/04/08 07:24:43;;;;;;;7.05;2.67;;;;;;;18.18;nan;-24323.34;4956859;29;20507;-67
2022/04/08 07:27:09;;;;;;;5.00;2.42;;;;;;;18.29;nan;-24326.41;4957011;28;20578;-67
2022/04/08 07:29:34;;;;;;;5.90;2.60;;;;;;;18.17;nan;-24323.06;4957468;28;20566;-67
2022/04/08 07:31:59;;;;;;;3.45;2.40;;;;;;;18.19;nan;-24323.63;4957019;29;20205;-68
2022/04/08 07:34:25;;;;;;;6.78;2.58;;;;;;;18.49;nan;-24331.84;4956940;29;20504;-68
2022/04/08 07:36:50;;;;;;;3.97;2.40;;;;;;;18.48;nan;-24331.56;4957321;29;20688;-65
2022/04/08 07:39:15;;;;;;;4.38;2.20;;;;;;;18.91;nan;-24343.41;4956911;28;20170;-66
2022/04/08 07:41:41;;;;;;;4.53;2.10;;;;;;;18.79;nan;-24340.06;4956734;29;20677;-67
2022/04/08 07:44:06;;;;;;;3.60;2.60;;;;;;;19.04;nan;-24346.91;4956596;29;20182;-65
2022/04/08 07:46:32;;;;;;;3.78;2.33;;;;;;;19.36;nan;-24355.94;4956817;28;20642;-65
2022/04/08 07:48:57;;;;;;;5.15;2.42;;;;;;;19.48;nan;-24359.13;4956506;28;20766;-67
2022/04/08 07:51:22;;;;;;;7.68;2.50;;;;;;;19.07;nan;-24347.88;4970052;28;20221;-68
2022/04/08 07:53:48;;;;;;;6.13;2.50;;;;;;;18.99;nan;-24345.66;4975673;28;20607;-66
2022/04/08 07:56:13;;;;;;;8.73;2.60;;;;;;;19.19;nan;-24351.06;4975562;28;20193;-66
2022/04/08 07:58:39;;;;;;;5.53;2.47;;;;;;;19.06;nan;-24347.44;4975723;28;20625;-68
2022/04/08 08:01:04;;;;;;;4.72;2.25;;;;;;;19.05;nan;-24347.19;4975978;28;20161;-66
2022/04/08 08:03:31;;;;;;;5.10;2.60;;;;;;;18.94;nan;-24344.25;4975425;28;20177;-66
2022/04/08 08:05:56;;;;;;;4.43;2.83;;;;;;;19.01;nan;-24346.19;4975681;28;20544;-68
2022/04/08 08:08:22;;;;;;;4.53;2.85;;;;;;;19.22;nan;-24351.91;4975444;28;20173;-65
2022/04/08 08:10:47;;;;;;;3.80;2.70;;;;;;;19.14;nan;-24349.69;4975727;28;20223;-69
2022/04/08 08:13:13;;;;;;;5.75;2.88;;;;;;;19.44;nan;-24357.88;4975588;28;20617;-68
2022/04/08 08:15:40;;;;;;;4.03;2.60;;;;;;;19.85;nan;-24369.28;4975604;28;20169;-68
2022/04/08 08:18:07;;;;;;;5.32;2.55;;;;;;;19.81;nan;-24368.31;4966732;28;20207;-66
2022/04/08 08:20:33;;;;;;;5.20;2.40;;;;;;;19.76;nan;-24366.94;4953656;28;20174;-66
2022/04/08 08:22:58;;;;;;;6.90;2.85;;;;;;;19.74;nan;-24366.22;4952323;28;20204;-66
2022/04/08 08:25:23;;;;;;;5.18;2.50;;;;;;;19.78;nan;-24367.47;4952707;28;20535;-68
2022/04/08 08:27:54;;;;;;;3.08;2.60;;;;;;;20.01;nan;-24373.59;4957177;28;20186;-67
2022/04/08 08:30:20;;;;;;;6.90;2.60;;;;;;;19.74;nan;-24366.22;4962043;28;20236;-67
2022/04/08 08:32:47;;;;;;;10.07;3.15;;;;;;;20.07;nan;-24375.25;4966211;28;20542;-68
2022/04/08 08:35:14;;;;;;;6.95;3.08;;;;;;;19.98;nan;-24372.75;4956264;29;20205;-69
2022/04/08 08:37:41;;;;;;;3.83;3.08;;;;;;;20.47;nan;-24386.38;4969929;28;20661;-66
2022/04/08 08:40:08;;;;;;;4.35;2.75;;;;;;;20.50;nan;-24387.06;4975138;28;20213;-66
2022/04/08 08:42:38;;;;;;;5.20;2.78;;;;;;;20.42;nan;-24384.84;4975168;28;20178;-67
2022/04/08 08:45:05;;;;;;;4.30;2.63;;;;;;;20.03;nan;-24374.16;4975327;28;20201;-67
2022/04/08 08:47:31;;;;;;;8.00;2.92;;;;;;;20.66;nan;-24391.66;4975033;28;20187;-68
2022/04/08 08:49:57;;;;;;;3.65;2.90;;;;;;;20.42;nan;-24384.84;4974666;28;20320;-65
2022/04/08 08:52:24;;;;;;;4.07;2.80;;;;;;;20.67;nan;-24391.94;4975152;28;20253;-69
2022/04/08 08:54:50;;;;;;;4.72;2.78;;;;;;;20.92;nan;-24398.72;4974561;28;20577;-68
2022/04/08 08:57:19;;;;;;;5.00;2.78;;;;;;;20.78;nan;-24394.84;4975001;28;20181;-67
2022/04/08 08:59:46;;;;;;;3.15;2.50;;;;;;;20.54;nan;-24388.31;4975318;28;20169;-68
2022/04/08 09:02:17;;;;;;;3.97;3.22;;;;;;;20.46;nan;-24385.97;4974565;28;20261;-66
2022/04/08 09:04:42;;;;;;;3.15;2.80;;;;;;;20.62;nan;-24390.41;4959376;28;20185;-68
2022/04/08 09:07:29;;;;;;;9.13;2.97;;;;;;;21.02;nan;-24401.50;4955092;28;20175;-65
2022/04/08 09:09:58;;;;;;;3.58;2.80;;;;;;;21.04;nan;-24402.06;4954976;29;20170;-65
2022/04/08 09:12:28;;;;;;;2.88;2.50;;;;;;;21.12;nan;-24404.13;4954963;28;20185;-69
2022/04/08 09:14:57;;;;;;;4.13;2.70;;;;;;;20.88;nan;-24397.47;4953850;28;20273;-69
2022/04/08 09:17:24;;;;;;;5.32;2.60;;;;;;;21.15;nan;-24405.09;4967637;28;20181;-66
2022/04/08 09:19:54;;;;;;;4.38;2.70;;;;;;;21.04;nan;-24402.06;4958615;28;20189;-68
2022/04/08 09:22:21;;;;;;;3.38;2.67;;;;;;;21.40;nan;-24411.75;4955860;28;20190;-68
2022/04/08 09:24:46;;;;;;;3.28;2.45;;;;;;;21.48;nan;-24413.97;4974097;28;20172;-68
2022/04/08 09:27:13;;;;;;;5.32;3.15;;;;;;;21.47;nan;-24413.84;4974196;28;20177;-67
2022/04/08 09:29:43;;;;;;;5.63;2.70;;;;;;;21.69;nan;-24419.66;4973945;28;20265;-67
2022/04/08 09:32:11;;;;;;;7.05;3.05;;;;;;;21.55;nan;-24416.06;4973547;28;20215;-67
2022/04/08 09:34:38;;;;;;;7.00;2.83;;;;;;;22.04;nan;-24429.34;4973918;28;20169;-67
2022/04/08 09:37:11;;;;;;;3.58;2.90;;;;;;;21.73;nan;-24420.78;4972193;28;20169;-68
2022/04/08 09:39:57;;;;;;;3.25;2.75;;;;;;;21.90;nan;-24425.63;4973750;28;20176;-65
2022/04/08 09:42:23;;;;;;;3.17;2.72;;;;;;;21.73;nan;-24420.91;4959875;28;20196;-68
2022/04/08 09:44:49;;;;;;;5.35;2.65;;;;;;;21.84;nan;-24423.81;4973940;28;20184;-67
2022/04/08 09:47:15;;;;;;;4.20;2.70;;;;;;;21.72;nan;-24420.63;4974055;28;20178;-66
2022/04/08 09:49:41;;;;;;;3.00;2.70;;;;;;;21.74;nan;-24421.03;4973482;28;20170;-68
2022/04/08 09:52:07;;;;;;;2.97;2.22;;;;;;;21.94;nan;-24426.72;4973893;28;20193;-68
2022/04/08 09:54:35;;;;;;;7.60;2.85;;;;;;;21.84;nan;-24423.81;4974145;28;20181;-68
2022/04/08 09:57:01;;;;;;;5.95;2.58;;;;;;;22.17;nan;-24432.81;4973354;28;20557;-69
2022/04/08 09:59:31;;;;;;;4.50;2.40;;;;;;;22.09;nan;-24430.59;4973553;28;20180;-69
2022/04/08 10:02:01;;;;;;;3.58;2.60;;;;;;;21.69;nan;-24419.66;4973973;28;20170;-67
2022/04/08 10:04:28;;;;;;;17.23;3.63;;;;;;;21.83;nan;-24423.69;4974014;28;20180;-68
2022/04/08 10:06:53;;;;;;;9.65;2.90;;;;;;;22.08;nan;-24430.31;4973783;28;20183;-69
2022/04/08 10:09:21;;;;;;;5.55;2.55;;;;;;;22.14;nan;-24432.00;4973624;28;20272;-68
2022/04/08 10:11:54;;;;;;;5.38;2.45;;;;;;;22.18;nan;-24433.22;4973249;28;20769;-67
2022/04/08 10:14:35;;;;;;;5.63;2.65;;;;;;;22.28;nan;-24435.88;4973292;28;20268;-66
2022/04/08 10:17:01;;;;;;;5.68;3.25;;;;;;;22.34;nan;-24437.66;4973480;28;20199;-68
2022/04/08 10:19:29;;;;;;;4.15;2.53;;;;;;;22.41;nan;-24439.59;4973634;28;20260;-69
2022/04/08 10:21:55;;;;;;;3.03;2.40;;;;;;;22.31;nan;-24436.84;4973397;28;20232;-66
2022/04/08 10:24:26;;;;;;;9.73;3.60;;;;;;;22.39;nan;-24438.91;4973256;28;20256;-69
2022/04/08 10:27:01;;;;;;;6.07;2.50;;;;;;;22.60;nan;-24444.72;4974245;28;20240;-67
2022/04/08 10:29:27;;;;;;;4.90;2.50;;;;;;;22.60;nan;-24444.72;4973542;28;20264;-67
2022/04/08 10:31:58;;;;;;;3.88;2.42;;;;;;;22.43;nan;-24440.16;4973127;28;20209;-69
2022/04/08 10:34:24;;;;;;;5.60;2.47;;;;;;;22.79;nan;-24449.97;4973299;28;20173;-67
2022/04/08 10:36:49;;;;;;;2.95;2.40;;;;;;;22.99;nan;-24455.22;4972922;28;20260;-66
2022/04/08 10:39:17;;;;;;;2.78;2.33;;;;;;;23.12;nan;-24458.81;4973202;28;20204;-67
2022/04/08 10:42:00;;;;;;;4.60;2.45;;;;;;;22.74;nan;-24448.44;4973353;28;20177;-68
2022/04/08 10:44:36;;;;;;;4.75;2.38;;;;;;;23.01;nan;-24455.78;4972818;28;20177;-68
2022/04/08 10:47:23;;;;;;;2.85;2.03;;;;;;;22.99;nan;-24455.38;4955949;28;20568;-70
2022/04/08 10:49:58;;;;;;;4.68;2.50;;;;;;;23.12;nan;-24458.94;4968097;28;20572;-68
2022/04/08 10:52:28;;;;;;;2.78;2.25;;;;;;;22.75;nan;-24448.88;4963523;28;20192;-68
2022/04/08 10:55:04;;;;;;;3.75;2.28;;;;;;;23.24;nan;-24462.28;4970107;28;20189;-69
2022/04/08 10:57:40;;;;;;;3.17;2.28;;;;;;;23.26;nan;-24462.81;4963664;29;20208;-67
2022/04/08 11:00:10;;;;;;;5.20;2.25;;;;;;;23.23;nan;-24461.84;4956842;29;20587;-67
2022/04/08 11:02:37;;;;;;;7.50;3.20;;;;;;;23.35;nan;-24465.19;4958157;28;20201;-68
2022/04/08 11:05:06;;;;;;;3.17;2.40;;;;;;;22.67;nan;-24446.66;4957299;28;20209;-68
2022/04/08 11:07:32;;;;;;;4.22;2.20;;;;;;;22.97;nan;-24454.66;4957734;28;20185;-69
2022/04/08 11:09:58;;;;;;;9.30;2.90;;;;;;;23.35;nan;-24465.19;4957571;28;20170;-68
2022/04/08 11:12:25;;;;;;;5.10;3.25;;;;;;;23.25;nan;-24462.41;4961949;28;20213;-67
2022/04/08 11:14:55;;;;;;;4.32;3.05;;;;;;;23.30;nan;-24463.78;4964096;28;20248;-68
2022/04/08 11:17:21;;;;;;;8.38;4.43;;;;;;;23.79;nan;-24477.19;4945639;29;20563;-67
2022/04/08 11:19:52;;;;;;;2.80;2.17;;;;;;;23.60;nan;-24472.06;4957392;28;20185;-66
2022/04/08 11:22:18;;;;;;;2.45;2.17;;;;;;;23.60;nan;-24472.06;4957548;29;20177;-69
2022/04/08 11:24:43;;;;;;;4.93;2.90;;;;;;;23.50;nan;-24469.19;4956697;29;20190;-68
2022/04/08 11:27:10;;;;;;;4.03;3.00;;;;;;;23.25;nan;-24462.41;4957361;29;20196;-67
2022/04/08 11:29:36;;;;;;;5.40;3.33;;;;;;;23.17;nan;-24460.19;4957365;28;20186;-70
2022/04/08 11:32:07;;;;;;;8.77;3.85;;;;;;;23.30;nan;-24463.78;4957560;28;20202;-68
2022/04/08 11:34:33;;;;;;;6.30;3.75;;;;;;;23.46;nan;-24468.06;4957207;28;20576;-69
2022/04/08 11:36:59;;;;;;;5.63;3.78;;;;;;;23.45;nan;-24467.94;4957450;28;20695;-70
2022/04/08 11:39:26;;;;;;;8.18;4.05;;;;;;;23.53;nan;-24470.00;4957022;28;20173;-67